GMMN/CMN METAR and TAF weather

Enter ICAO airport designator
Station Type Date Time Source
GMMN METAR 2020/08/07 12:30 UTC NOAA

GMMN 071230Z 34009KT CAVOK 28/20 Q1017 NOSIG


Station Type Date Time Source
GMMN Decoded METAR 2020/08/07 12:30 UTC NOAA

Nouasseur, Morocco (GMMN) 33-22N 007-35W 206M
Aug 07, 2020 - 08:30 AM EDT / 2020.08.07 1230 UTC
Wind: from the NNW (340 degrees) at 10 MPH (9 KT):0
Visibility: greater than 7 mile(s):0
Temperature: 82 F (28 C)
Dew Point: 68 F (20 C)
Relative Humidity: 61%
Pressure (altimeter): 30.03 in. Hg (1017 hPa)
ob: GMMN 071230Z 34009KT CAVOK 28/20 Q1017 NOSIG
cycle: 12

Station Type Date Time Source
GMMN TAF 2020/08/07 12:40 UTC NOAA

TAF GMMN 071100Z 0712/0818 01004KT CAVOK
BECMG 0713/0715 33014KT
BECMG 0719/0721 35004KT
BECMG 0721/0724 BKN010
BECMG 0813/0815 34015KT

Example: see airport list